Time;durP1;ratioP1;P1;durP2;ratioP2;P2;SDS_P1;SDS_P2;PMS_P1;PMS_P2;Temp;Humidity;BMP_temperature;BMP_pressure;BME280_temperature;BME280_humidity;BME280_pressure;Samples;Min_cycle;Max_cycle;Signal;HPM_P1;HPM_P2
2024/04/11 00:00:55;;;;;;;9.70;4.82;;;;;;;10.25;64.54;100003.78;5162865;27;19999;-93
2024/04/11 00:03:20;;;;;;;8.98;5.38;;;;;;;10.26;64.68;100000.06;5165915;27;20020;-94
2024/04/11 00:05:46;;;;;;;10.25;5.15;;;;;;;10.30;64.83;100023.53;5163255;27;20079;-92
2024/04/11 00:08:11;;;;;;;7.63;4.70;;;;;;;10.10;65.23;100013.31;5162599;27;20070;-92
2024/04/11 00:10:37;;;;;;;12.98;4.93;;;;;;;10.02;65.21;99994.94;5189621;27;20000;-93
2024/04/11 00:13:04;;;;;;;10.32;5.00;;;;;;;10.11;65.36;100019.50;5162875;27;20044;-94
2024/04/11 00:15:30;;;;;;;11.68;4.45;;;;;;;10.03;65.19;100011.88;5161701;27;20287;-94
2024/04/11 00:17:55;;;;;;;7.38;4.80;;;;;;;9.97;65.09;100008.28;5189743;27;20066;-96
2024/04/11 00:20:21;;;;;;;13.15;5.18;;;;;;;10.01;65.69;100030.16;5161873;27;19999;-94
2024/04/11 00:22:47;;;;;;;11.23;5.57;;;;;;;9.84;65.62;100016.72;5163369;27;19999;-94
2024/04/11 00:25:14;;;;;;;10.20;5.40;;;;;;;9.83;65.44;100026.66;5162657;27;20016;-94
2024/04/11 00:27:40;;;;;;;14.18;5.47;;;;;;;9.60;66.07;100003.47;5161197;27;19995;-94
2024/04/11 00:30:06;;;;;;;10.68;5.10;;;;;;;9.68;65.80;100023.75;5161955;27;20070;-94
2024/04/11 00:32:32;;;;;;;13.57;5.65;;;;;;;9.54;66.35;100009.81;5161755;27;20016;-94
2024/04/11 00:35:01;;;;;;;12.25;6.15;;;;;;;9.54;66.57;100030.53;5162678;27;20000;-93
2024/04/11 00:37:31;;;;;;;10.38;5.82;;;;;;;9.46;66.20;100024.50;5163404;27;19995;-95
2024/04/11 00:39:58;;;;;;;15.98;6.18;;;;;;;9.44;66.84;100036.53;5163387;27;20439;-94
2024/04/11 00:42:24;;;;;;;9.48;5.10;;;;;;;9.47;66.82;100054.88;5189633;27;20415;-95
2024/04/11 00:44:52;;;;;;;14.82;5.28;;;;;;;9.35;66.99;100038.03;5162355;27;20040;-95
2024/04/11 00:47:20;;;;;;;15.80;6.88;;;;;;;9.37;67.10;100044.78;5162681;27;20000;-94
2024/04/11 00:49:56;;;;;;;11.70;7.28;;;;;;;9.33;66.78;100042.81;5163029;27;20000;-92
2024/04/11 00:52:22;;;;;;;14.35;6.85;;;;;;;9.42;67.05;100057.47;5162704;27;20000;-94
2024/04/11 00:54:48;;;;;;;14.93;7.00;;;;;;;9.20;67.42;100050.16;5161523;27;20419;-94
2024/04/11 00:57:15;;;;;;;13.73;7.20;;;;;;;9.19;67.18;100055.75;5161495;27;20008;-92
2024/04/11 00:59:41;;;;;;;15.48;6.97;;;;;;;9.05;67.80;100045.31;5189099;27;20062;-94
2024/04/11 01:02:10;;;;;;;15.48;6.82;;;;;;;8.96;68.03;100040.56;5160803;27;20435;-94
2024/04/11 01:04:36;;;;;;;14.63;7.45;;;;;;;8.97;67.93;100045.72;5162680;27;19996;-93
2024/04/11 01:07:10;;;;;;;19.40;7.20;;;;;;;8.95;68.37;100060.44;5162115;27;20003;-93
2024/04/11 01:09:45;;;;;;;17.08;7.13;;;;;;;8.90;68.15;100051.25;5161358;27;19988;-93
2024/04/11 01:12:16;;;;;;;13.63;6.80;;;;;;;8.86;68.39;100046.56;5161923;27;20007;-93
2024/04/11 01:14:43;;;;;;;10.67;6.17;;;;;;;8.82;68.35;100043.56;5161540;27;20015;-93
2024/04/11 01:17:28;;;;;;;16.75;6.30;;;;;;;8.78;68.40;100045.09;5161554;27;20010;-92
2024/04/11 01:19:54;;;;;;;16.83;6.65;;;;;;;8.96;68.25;100051.31;5121416;27;20001;-93
2024/04/11 01:22:19;;;;;;;11.93;6.38;;;;;;;9.11;68.07;100070.41;5069417;27;20009;-93
2024/04/11 01:24:45;;;;;;;13.15;5.43;;;;;;;9.01;67.43;100038.81;5069276;27;19997;-93
2024/04/11 01:27:18;;;;;;;10.90;5.82;;;;;;;8.96;67.74;100043.25;5070177;27;20001;-93
2024/04/11 01:29:44;;;;;;;8.68;5.63;;;;;;;8.89;68.06;100051.47;5072695;27;19997;-95
2024/04/11 01:32:10;;;;;;;9.93;5.65;;;;;;;9.00;68.01;100073.94;5069156;27;19993;-94
2024/04/11 01:34:36;;;;;;;10.13;5.85;;;;;;;8.89;68.85;100070.28;5068627;27;19997;-95
2024/04/11 01:37:01;;;;;;;12.07;6.53;;;;;;;8.67;68.93;100049.47;5068906;27;19997;-95
2024/04/11 01:39:27;;;;;;;12.85;6.43;;;;;;;8.75;68.76;100071.59;5067862;27;20053;-93
2024/04/11 01:41:53;;;;;;;15.88;6.70;;;;;;;8.58;69.57;100063.50;5068467;27;19993;-91
2024/04/11 01:44:19;;;;;;;12.45;6.40;;;;;;;8.53;69.28;100058.00;5067601;27;20004;-94
2024/04/11 01:46:44;;;;;;;15.95;6.63;;;;;;;8.42;69.57;100046.25;5068550;27;20001;-92
2024/04/11 01:49:10;;;;;;;12.65;5.90;;;;;;;8.60;69.57;100080.19;5068795;27;20060;-93
2024/04/11 01:51:36;;;;;;;12.82;7.38;;;;;;;8.41;70.08;100056.19;5138924;27;19992;-94
2024/04/11 01:54:10;;;;;;;11.27;6.90;;;;;;;8.39;69.72;100057.44;5159990;27;20102;-94
2024/04/11 01:56:40;;;;;;;14.40;6.60;;;;;;;8.37;69.86;100052.31;5162187;27;19999;-93
2024/04/11 01:59:06;;;;;;;10.60;6.13;;;;;;;8.43;69.96;100064.00;5159381;27;20007;-94
2024/04/11 02:01:35;;;;;;;10.77;5.88;;;;;;;8.28;70.00;100054.56;5160034;27;20014;-94
2024/04/11 02:04:05;;;;;;;7.65;5.18;;;;;;;8.29;70.00;100068.78;5186957;27;20007;-93
2024/04/11 02:06:34;;;;;;;9.95;5.38;;;;;;;8.20;70.14;100070.19;5159903;27;20003;-95
2024/04/11 02:09:01;;;;;;;13.77;6.00;;;;;;;8.15;70.40;100086.97;5160785;27;20003;-94
2024/04/11 02:11:29;;;;;;;13.00;5.05;;;;;;;8.07;70.78;100079.28;5161065;27;20003;-92
2024/04/11 02:13:54;;;;;;;7.63;5.35;;;;;;;8.05;70.27;100071.50;5159921;27;20007;-94
2024/04/11 02:16:20;;;;;;;13.52;5.78;;;;;;;8.00;70.89;100067.88;5159961;27;20014;-92
2024/04/11 02:18:47;;;;;;;8.82;5.43;;;;;;;8.06;70.42;100077.69;5159494;27;20048;-95
2024/04/11 02:21:13;;;;;;;10.25;5.78;;;;;;;8.07;70.23;100090.84;5159636;27;20000;-95
2024/04/11 02:23:39;;;;;;;10.30;5.85;;;;;;;8.18;70.20;100099.94;5186556;27;20006;-95
2024/04/11 02:26:04;;;;;;;10.10;6.18;;;;;;;8.06;70.16;100086.53;5158695;27;20311;-93
2024/04/11 02:28:31;;;;;;;9.05;6.15;;;;;;;8.09;70.66;100104.84;5158361;27;20000;-93
2024/04/11 02:30:57;;;;;;;9.82;5.68;;;;;;;7.92;70.43;100079.78;5159617;27;19996;-93
2024/04/11 02:33:25;;;;;;;9.00;6.13;;;;;;;7.88;70.87;100095.50;5159047;27;19995;-93
2024/04/11 02:35:50;;;;;;;8.25;6.00;;;;;;;7.91;70.52;100104.97;5160772;27;19999;-93
2024/04/11 02:38:16;;;;;;;24.33;7.03;;;;;;;7.76;70.64;100092.03;5158631;27;20012;-92
2024/04/11 02:40:41;;;;;;;10.00;5.53;;;;;;;7.85;70.62;100103.22;5159671;27;19996;-94
2024/04/11 02:43:08;;;;;;;10.60;6.32;;;;;;;7.99;70.88;100125.22;5186318;27;19999;-94
2024/04/11 02:45:37;;;;;;;9.13;6.00;;;;;;;7.80;71.38;100127.19;5158427;27;20010;-93
2024/04/11 02:48:03;;;;;;;14.10;6.80;;;;;;;7.72;71.26;100101.56;5186269;27;20423;-93
2024/04/11 02:50:29;;;;;;;11.75;7.13;;;;;;;7.72;70.77;100106.94;5160706;27;20011;-92
2024/04/11 02:52:55;;;;;;;12.35;7.75;;;;;;;7.65;71.17;100106.22;5186241;27;19992;-93
2024/04/11 02:55:20;;;;;;;14.85;8.45;;;;;;;7.66;70.82;100113.22;5161212;27;19996;-95
2024/04/11 02:57:46;;;;;;;13.60;7.65;;;;;;;7.70;71.08;100114.38;5163123;27;20002;-93
2024/04/11 03:00:16;;;;;;;10.45;6.88;;;;;;;7.63;71.60;100117.16;5163164;27;20006;-94
2024/04/11 03:02:42;;;;;;;10.48;7.03;;;;;;;7.61;70.88;100121.94;5190764;27;20019;-93
2024/04/11 03:05:07;;;;;;;11.77;7.13;;;;;;;7.55;70.80;100112.13;5161593;27;20000;-93
2024/04/11 03:07:33;;;;;;;11.02;7.18;;;;;;;7.50;71.05;100120.06;5163462;27;19999;-95
2024/04/11 03:09:59;;;;;;;13.13;7.20;;;;;;;7.29;71.68;100121.41;5162406;27;20102;-93
2024/04/11 03:12:24;;;;;;;15.18;8.00;;;;;;;7.37;71.37;100128.31;5162160;27;20427;-92
2024/04/11 03:14:50;;;;;;;10.63;6.70;;;;;;;7.23;71.68;100115.09;5162769;27;19999;-94
2024/04/11 03:17:16;;;;;;;14.48;6.65;;;;;;;7.28;71.83;100135.81;5162206;27;19999;-94
2024/04/11 03:19:42;;;;;;;14.90;6.95;;;;;;;7.20;72.02;100122.75;5190263;27;19992;-93
2024/04/11 03:22:08;;;;;;;13.52;7.57;;;;;;;7.28;72.09;100143.84;5163701;27;20002;-94
2024/04/11 03:24:34;;;;;;;18.80;8.23;;;;;;;7.25;72.13;100137.09;5162522;27;20003;-93
2024/04/11 03:27:02;;;;;;;22.75;8.30;;;;;;;7.25;72.16;100139.78;5162908;27;19992;-93
2024/04/11 03:29:29;;;;;;;16.67;9.70;;;;;;;7.26;72.19;100143.25;5164032;27;20004;-91
2024/04/11 03:31:57;;;;;;;14.18;8.50;;;;;;;7.29;71.83;100153.53;5162204;27;20007;-93
2024/04/11 03:34:23;;;;;;;14.38;7.80;;;;;;;7.24;71.89;100151.56;5163985;27;20047;-93
2024/04/11 03:36:49;;;;;;;15.98;8.65;;;;;;;7.21;71.62;100143.16;5162589;27;20000;-94
2024/04/11 03:39:20;;;;;;;17.15;8.35;;;;;;;7.27;71.89;100161.00;5162493;27;20444;-91
2024/04/11 03:41:48;;;;;;;16.48;7.80;;;;;;;7.32;71.88;100165.66;5164408;27;20361;-94
2024/04/11 03:44:18;;;;;;;17.73;8.13;;;;;;;7.39;71.41;100161.03;5163767;27;20008;-93
2024/04/11 03:46:43;;;;;;;15.55;6.57;;;;;;;7.64;70.51;100179.63;5163197;27;20000;-93
2024/04/11 03:49:09;;;;;;;19.60;7.65;;;;;;;7.61;71.21;100196.97;5189524;27;20014;-95
2024/04/11 03:51:39;;;;;;;14.82;6.90;;;;;;;7.39;70.82;100169.06;5161290;27;20002;-92
2024/04/11 03:54:06;;;;;;;20.58;6.75;;;;;;;7.40;71.29;100178.72;5165371;27;20025;-92
2024/04/11 03:56:32;;;;;;;14.50;6.72;;;;;;;7.42;71.50;100209.59;5189948;27;20019;-92
2024/04/11 03:58:58;;;;;;;12.82;6.20;;;;;;;7.23;71.21;100184.72;5187138;27;20007;-92
2024/04/11 04:01:26;;;;;;;16.48;6.75;;;;;;;7.26;71.21;100197.69;5185905;27;20019;-93
2024/04/11 04:03:53;;;;;;;11.18;6.65;;;;;;;7.31;71.07;100207.72;5188811;27;20020;-92
2024/04/11 04:06:19;;;;;;;13.10;6.70;;;;;;;7.28;71.35;100202.78;5179499;27;20024;-92
2024/04/11 04:08:46;;;;;;;19.98;7.20;;;;;;;7.30;71.40;100214.09;5188537;27;20455;-91
2024/04/11 04:11:13;;;;;;;11.40;5.90;;;;;;;7.13;71.35;100205.88;5191388;27;20092;-94
2024/04/11 04:13:40;;;;;;;18.17;6.65;;;;;;;7.15;71.38;100203.78;5194318;27;20403;-95
2024/04/11 04:16:25;;;;;;;8.95;5.60;;;;;;;7.14;71.46;100207.50;5194620;27;20072;-95
2024/04/11 04:19:02;;;;;;;10.40;5.68;;;;;;;7.09;71.85;100229.59;5196101;27;20027;-95
2024/04/11 04:21:55;;;;;;;8.90;5.78;;;;;;;7.25;71.27;100238.88;5172955;27;20003;-94
2024/04/11 04:24:21;;;;;;;9.18;5.25;;;;;;;7.37;70.88;100235.47;5169757;27;20053;-96
2024/04/11 04:27:07;;;;;;;9.68;5.75;;;;;;;7.45;70.34;100244.00;5167540;27;20003;-96
2024/04/11 04:30:04;;;;;;;16.92;6.07;;;;;;;7.49;70.11;100231.78;5195163;27;20024;-94
2024/04/11 04:32:40;;;;;;;13.38;6.32;;;;;;;7.41;69.83;100228.59;5193472;27;20071;-94
2024/04/11 04:35:09;;;;;;;15.60;6.13;;;;;;;7.36;70.36;100237.31;5162284;27;20563;-95
2024/04/11 04:37:50;;;;;;;;;;;;;;;;;;;;;
2024/04/11 04:40:16;;;;;;;44.03;17.02;;;;;;;7.58;70.48;100252.91;5168263;27;19991;-95
2024/04/11 04:42:44;;;;;;;9.60;6.95;;;;;;;7.65;70.27;100250.94;5140089;27;19991;-94
2024/04/11 04:47:47;;;;;;;19.58;6.95;;;;;;;7.62;70.27;100272.84;5246742;22;20063;-90
2024/04/11 04:50:13;;;;;;;18.33;8.43;;;;;;;7.48;70.22;100251.56;5126462;27;20015;-93
2024/04/11 04:53:02;;;;;;;23.33;10.48;;;;;;;7.66;70.25;100253.41;5139327;27;19999;-90
2024/04/11 04:55:31;;;;;;;26.25;7.90;;;;;;;7.95;69.75;100288.47;5139700;27;20004;-89
2024/04/11 04:58:15;;;;;;;14.90;7.00;;;;;;;7.87;69.58;100281.56;5106330;27;20064;-94
2024/04/11 05:00:42;;;;;;;10.82;7.18;;;;;;;7.88;69.70;100275.16;5103208;27;20311;-93
2024/04/11 05:03:10;;;;;;;15.10;8.75;;;;;;;7.86;70.14;100290.66;5101940;27;20001;-95
2024/04/11 05:05:39;;;;;;;12.77;6.60;;;;;;;7.96;69.31;100278.56;5104459;27;20000;-92
2024/04/11 05:08:13;;;;;;;17.60;6.75;;;;;;;8.21;69.23;100278.38;5114513;27;20016;-93
2024/04/11 05:10:40;;;;;;;14.10;7.93;;;;;;;8.42;67.72;100282.41;5151784;27;20011;-92
2024/04/11 05:13:32;;;;;;;13.85;7.53;;;;;;;8.53;67.38;100280.78;5121666;27;20012;-94
2024/04/11 05:16:06;;;;;;;25.70;11.40;;;;;;;8.61;67.74;100280.44;5132532;27;20015;-95
2024/04/11 05:18:38;;;;;;;15.73;7.82;;;;;;;8.81;67.22;100304.28;5123148;27;20435;-94
2024/04/11 05:21:32;;;;;;;21.30;7.55;;;;;;;8.69;67.04;100293.53;5114064;27;20015;-93
2024/04/11 05:23:58;;;;;;;15.15;7.45;;;;;;;8.84;67.50;100310.00;5180861;27;20003;-93
2024/04/11 05:26:41;;;;;;;23.90;8.77;;;;;;;8.85;67.77;100300.88;5103389;27;19997;-94
2024/04/11 05:29:08;;;;;;;16.23;8.88;;;;;;;9.03;67.02;100293.75;5107474;27;20004;-90
2024/04/11 05:31:37;;;;;;;23.42;9.30;;;;;;;9.27;66.40;100307.97;5103416;27;20004;-93
2024/04/11 05:34:07;;;;;;;21.13;9.73;;;;;;;9.38;65.80;100298.22;5129152;27;20000;-91
2024/04/11 05:36:34;;;;;;;19.75;10.55;;;;;;;9.55;64.82;100290.25;5102268;27;20442;-92
2024/04/11 05:38:59;;;;;;;27.90;11.82;;;;;;;9.68;64.84;100295.34;5102789;27;20008;-92
2024/04/11 05:41:28;;;;;;;26.63;12.65;;;;;;;9.95;64.40;100306.34;5101625;27;20012;-90
2024/04/11 05:43:56;;;;;;;20.52;9.25;;;;;;;9.90;63.67;100290.94;5127855;27;20431;-92
2024/04/11 05:46:24;;;;;;;17.48;8.50;;;;;;;10.22;62.71;100311.13;5096344;27;19997;-90
2024/04/11 05:48:50;;;;;;;17.10;7.95;;;;;;;10.27;62.13;100311.19;5073055;27;20054;-91
2024/04/11 05:51:20;;;;;;;16.98;8.75;;;;;;;10.54;61.39;100306.00;5072064;27;20041;-92
2024/04/11 05:53:46;;;;;;;16.10;8.45;;;;;;;10.72;60.43;100294.19;5073676;27;20001;-90
2024/04/11 05:56:15;;;;;;;14.98;7.45;;;;;;;11.17;59.45;100330.94;5098364;27;20012;-92
2024/04/11 05:58:55;;;;;;;;;;;;;;;;;;;;;
2024/04/11 06:01:23;;;;;;;17.63;8.13;;;;;;;11.35;58.43;100319.06;5111247;27;20005;-92
2024/04/11 06:03:51;;;;;;;18.77;6.93;;;;;;;11.38;57.61;100299.66;5107903;27;20325;-91
2024/04/11 06:06:26;;;;;;;18.42;8.38;;;;;;;11.41;58.16;100311.81;5088021;27;20075;-90
2024/04/11 06:09:03;;;;;;;19.20;8.20;;;;;;;11.55;58.06;100334.66;5126726;27;20327;-92
2024/04/11 06:11:29;;;;;;;16.20;7.43;;;;;;;11.50;57.48;100313.84;5126720;27;20000;-88
2024/04/11 06:13:55;;;;;;;25.98;12.88;;;;;;;11.67;57.71;100335.34;5099019;27;20012;-91
2024/04/11 06:17:03;;;;;;;15.63;5.82;;;;;;;11.93;56.78;100346.44;5098946;27;20335;-91
2024/04/11 06:19:40;;;;;;;9.27;5.80;;;;;;;12.02;56.28;100330.66;5140804;27;20082;-90
2024/04/11 06:22:06;;;;;;;14.05;6.85;;;;;;;12.18;56.24;100347.78;5083618;27;20081;-90
2024/04/11 06:24:35;;;;;;;17.25;7.35;;;;;;;12.05;56.80;100330.13;5090686;27;20007;-91
2024/04/11 06:27:02;;;;;;;11.75;7.13;;;;;;;12.28;56.27;100347.88;5090819;27;20009;-92
2024/04/11 06:29:28;;;;;;;11.48;6.70;;;;;;;12.48;55.84;100349.97;5089781;27;20001;-91
2024/04/11 06:35:27;;;;;;;17.35;7.15;;;;;;;12.53;54.81;100333.78;5133472;27;20335;-95
2024/04/11 06:37:53;;;;;;;14.40;6.80;;;;;;;12.74;55.01;100356.38;5096175;27;20001;-91
2024/04/11 06:40:25;;;;;;;22.02;8.40;;;;;;;12.76;55.20;100351.53;5100025;27;20016;-93
2024/04/11 06:46:56;;;;;;;16.92;7.13;;;;;;;12.95;54.84;100360.06;5095168;27;20087;-91
2024/04/11 06:49:23;;;;;;;16.08;7.57;;;;;;;13.13;54.27;100365.03;5083522;27;20006;-91
2024/04/11 06:52:22;;;;;;;18.27;7.15;;;;;;;13.33;53.64;100361.69;5095555;27;19997;-92
2024/04/11 06:54:48;;;;;;;17.25;7.95;;;;;;;13.34;53.24;100341.69;5119945;27;20324;-91
2024/04/11 06:57:44;;;;;;;22.20;8.38;;;;;;;13.72;52.85;100363.22;5067957;27;20007;-90
2024/04/11 07:00:58;;;;;;;19.25;8.00;;;;;;;13.75;51.72;100341.84;5147241;27;20005;-93
2024/04/11 07:03:30;;;;;;;15.63;7.55;;;;;;;14.01;51.67;100354.63;5119879;27;20123;-92
2024/04/11 07:06:09;;;;;;;17.83;7.47;;;;;;;14.01;51.66;100344.63;5067801;27;20396;-93
2024/04/11 07:09:03;;;;;;;16.38;9.23;;;;;;;14.15;50.39;100339.50;5095427;27;20365;-92
2024/04/11 07:12:28;;;;;;;14.07;7.45;;;;;;;14.52;50.69;100370.97;5089582;27;20001;-91
2024/04/11 07:14:57;;;;;;;46.33;29.90;;;;;;;14.69;50.23;100368.88;5093628;27;19997;-91
2024/04/11 07:17:58;;;;;;;16.27;10.55;;;;;;;14.80;49.41;100382.41;5093493;27;20012;-91
2024/04/11 07:20:30;;;;;;;17.63;9.18;;;;;;;14.82;49.03;100353.94;5119730;27;20001;-91
2024/04/11 07:23:22;;;;;;;14.60;7.40;;;;;;;15.27;48.92;100387.53;5072384;27;20033;-92
2024/04/11 07:25:54;;;;;;;20.77;12.35;;;;;;;15.36;48.37;100347.06;5138363;27;20001;-95
2024/04/11 07:28:24;;;;;;;17.08;8.75;;;;;;;15.44;48.23;100346.50;5114366;27;20004;-89
2024/04/11 07:30:49;;;;;;;10.55;7.13;;;;;;;15.70;47.10;100366.19;5080242;27;20005;-91
2024/04/11 07:33:35;;;;;;;17.08;7.45;;;;;;;15.96;46.23;100383.22;5059259;28;20070;-91
2024/04/11 07:36:09;;;;;;;24.30;8.35;;;;;;;15.95;46.16;100365.28;5063170;28;20010;-91
2024/04/11 07:38:37;;;;;;;16.90;7.13;;;;;;;16.07;44.61;100373.09;5060487;28;19998;-91
2024/04/11 07:41:32;;;;;;;11.02;6.65;;;;;;;16.27;44.31;100365.91;5041194;28;20008;-89
2024/04/11 07:44:05;;;;;;;12.70;8.93;;;;;;;16.52;43.31;100373.91;5087540;28;20074;-91
2024/04/11 07:50:44;;;;;;;;;;;;;;;17.04;37.14;100389.84;5056046;28;19996;-93
2024/04/11 07:56:09;;;;;;;12.98;6.03;;;;;;;17.15;36.56;100355.97;4986480;28;20509;-94
2024/04/11 07:58:38;;;;;;;9.25;5.05;;;;;;;17.45;37.37;100375.78;5126938;27;19992;-94
2024/04/11 08:01:14;;;;;;;10.52;6.53;;;;;;;17.70;37.80;100391.84;5132582;27;20000;-94
2024/04/11 08:03:41;;;;;;;9.65;5.63;;;;;;;17.83;37.17;100386.81;5108714;27;20009;-91
2024/04/11 08:06:10;;;;;;;12.50;5.78;;;;;;;17.87;37.11;100372.31;5108097;27;20008;-92
2024/04/11 08:08:48;;;;;;;11.85;5.22;;;;;;;17.98;36.92;100368.34;5129304;27;20105;-93
2024/04/11 08:11:15;;;;;;;15.70;5.63;;;;;;;18.17;37.95;100390.16;5107789;27;20012;-90
2024/04/11 08:13:43;;;;;;;9.25;4.90;;;;;;;18.37;38.34;100399.16;5128896;27;20072;-92
2024/04/11 08:16:41;;;;;;;7.40;4.55;;;;;;;18.39;37.70;100386.03;5104158;27;20012;-93
2024/04/11 08:19:09;;;;;;;7.50;4.60;;;;;;;18.46;38.39;100369.31;5123920;27;20003;-93
2024/04/11 08:21:44;;;;;;;9.38;4.82;;;;;;;18.54;37.47;100372.16;5125880;27;19997;-95
2024/04/11 08:24:13;;;;;;;8.57;4.55;;;;;;;18.65;37.38;100378.25;5068796;27;20012;-88
2024/04/11 08:26:39;;;;;;;6.97;4.57;;;;;;;18.86;37.14;100381.47;5069707;27;19997;-94
2024/04/11 08:29:04;;;;;;;13.25;5.63;;;;;;;18.92;37.04;100374.03;5069967;27;20392;-91
2024/04/11 08:31:30;;;;;;;11.52;5.15;;;;;;;19.12;37.19;100391.97;5093807;27;20012;-92
2024/04/11 08:33:59;;;;;;;7.55;4.75;;;;;;;19.18;36.93;100383.38;5067727;27;20096;-91
2024/04/11 08:36:29;;;;;;;9.82;5.25;;;;;;;19.20;37.15;100382.28;5095833;27;19994;-92
2024/04/11 08:39:00;;;;;;;7.25;4.10;;;;;;;19.24;36.56;100373.19;5080698;27;20016;-92
2024/04/11 08:41:55;;;;;;;7.05;3.85;;;;;;;19.42;34.49;100401.50;5111894;27;20069;-91
2024/04/11 08:44:21;;;;;;;11.02;4.68;;;;;;;19.39;34.07;100377.53;5126559;27;20023;-90
2024/04/11 08:46:46;;;;;;;9.10;3.60;;;;;;;19.40;33.87;100376.41;5128142;27;19996;-91
2024/04/11 08:49:13;;;;;;;5.72;3.88;;;;;;;19.49;33.79;100382.81;5134840;27;20061;-92
2024/04/11 08:52:32;;;;;;;7.20;4.10;;;;;;;19.56;33.58;100399.59;5107313;27;20000;-94
2024/04/11 08:55:05;;;;;;;5.72;4.00;;;;;;;19.54;33.50;100379.97;5111429;27;20001;-95
2024/04/11 08:57:49;;;;;;;8.52;4.75;;;;;;;19.64;33.82;100383.63;5063586;27;20029;-95
2024/04/11 09:00:17;;;;;;;8.80;4.63;;;;;;;19.71;32.88;100387.56;5080084;27;20327;-93
2024/04/11 09:02:48;;;;;;;6.80;3.65;;;;;;;19.65;33.07;100379.75;5049434;28;20064;-94
2024/04/11 09:08:19;;;;;;;6.78;3.75;;;;;;;19.95;32.24;100406.50;5063323;28;20032;-92
2024/04/11 09:10:50;;;;;;;7.10;3.92;;;;;;;19.81;31.81;100394.75;5092421;28;20002;-93
2024/04/11 09:13:44;;;;;;;6.05;4.20;;;;;;;19.88;31.55;100408.84;5051581;27;20166;-93
2024/04/11 09:19:40;;;;;;;6.47;3.85;;;;;;;19.88;31.48;100408.84;5055236;27;20006;-93
2024/04/11 09:22:21;;;;;;;5.70;3.97;;;;;;;19.92;31.79;100407.13;5072985;27;20108;-93
2024/04/11 09:24:47;;;;;;;6.35;4.03;;;;;;;19.95;32.30;100381.88;5080182;27;20004;-92
2024/04/11 09:27:16;;;;;;;6.90;4.40;;;;;;;20.02;32.24;100395.13;5113552;27;20015;-92
2024/04/11 09:29:46;;;;;;;4.97;3.50;;;;;;;20.19;30.59;100389.84;5115654;27;20024;-92
2024/04/11 09:32:13;;;;;;;36.17;24.88;;;;;;;20.11;30.94;100385.09;5160935;27;20009;-92
2024/04/11 09:34:43;;;;;;;8.57;4.10;;;;;;;20.13;31.13;100390.25;5128188;27;20035;-91
2024/04/11 09:37:32;;;;;;;6.20;4.00;;;;;;;20.24;31.65;100390.84;5153861;27;20003;-96
2024/04/11 09:39:56;;;;;;;7.20;3.65;;;;;;;20.36;31.35;100421.22;5083572;28;20016;-90
2024/04/11 09:42:26;;;;;;;7.43;4.35;;;;;;;20.19;31.61;100394.47;5068306;28;20075;-93
2024/04/11 09:45:03;;;;;;;6.25;3.35;;;;;;;20.36;30.73;100413.81;5032881;28;20018;-94
2024/04/11 09:47:34;;;;;;;9.30;4.15;;;;;;;20.29;31.29;100387.97;5021798;28;20007;-94
2024/04/11 09:50:09;;;;;;;7.47;3.20;;;;;;;20.34;29.05;100410.56;4997323;28;19999;-97
2024/04/11 09:52:37;;;;;;;5.22;3.40;;;;;;;20.41;29.54;100403.88;4974425;28;20000;-94
2024/04/11 09:55:08;;;;;;;7.18;3.75;;;;;;;20.55;30.30;100416.38;4973905;28;20007;-94
2024/04/11 09:57:37;;;;;;;8.18;3.55;;;;;;;20.51;30.59;100401.69;4988207;28;20066;-96
2024/04/11 10:00:07;;;;;;;6.55;3.50;;;;;;;20.62;30.96;100409.69;5008810;28;20023;-94
2024/04/11 10:02:41;;;;;;;5.40;3.60;;;;;;;20.61;31.29;100400.69;5010746;28;20007;-93
2024/04/11 10:05:07;;;;;;;6.32;3.50;;;;;;;20.62;30.67;100404.22;4990173;28;20014;-90
2024/04/11 10:07:34;;;;;;;3.55;2.70;;;;;;;20.59;30.02;100402.91;5051124;28;20027;-90
2024/04/11 10:13:44;;;;;;;6.68;3.88;;;;;;;20.90;29.11;100421.34;5104737;27;20331;-93
2024/04/11 10:19:57;;;;;;;;;;;;;;;;;;;;;
2024/04/11 10:22:43;;;;;;;5.13;3.30;;;;;;;20.95;29.93;100388.34;5124448;27;20001;-93
2024/04/11 10:25:52;;;;;;;;;;;;;;;;;;;;;
2024/04/11 10:29:43;;;;;;;;;;;;;;;;;;;;;
2024/04/11 10:32:51;;;;;;;3.58;2.45;;;;;;;21.27;27.93;100389.97;5085001;27;19998;-92
2024/04/11 10:35:14;;;;;;;;;;;;;;;;;;;;;
2024/04/11 10:37:40;;;;;;;4.88;2.80;;;;;;;21.42;28.62;100393.41;5183512;27;20004;-95
2024/04/11 10:40:56;;;;;;;8.15;3.13;;;;;;;21.56;29.12;100391.38;5129817;27;19997;-94
2024/04/11 10:44:06;;;;;;;;;;;;;;;;;;;;;
2024/04/11 10:46:49;;;;;;;;;;;;;;;;;;;;;
2024/04/11 10:49:19;;;;;;;5.60;3.63;;;;;;;21.91;30.34;100397.75;5194867;27;19928;-93
2024/04/11 10:51:58;;;;;;;6.70;3.10;;;;;;;21.93;29.66;100397.44;5169325;27;20411;-94
2024/04/11 10:54:30;;;;;;;4.93;3.22;;;;;;;21.93;30.22;100397.44;5098581;27;20060;-94
2024/04/11 10:56:55;;;;;;;;;;;;;;;21.98;29.77;100397.31;5097439;27;20012;-95
2024/04/11 10:59:32;;;;;;;7.75;3.25;;;;;;;21.88;30.39;100376.47;5077676;27;20307;-92
2024/04/11 11:02:25;;;;;;;5.82;3.10;;;;;;;22.09;30.34;100395.06;5072909;28;20010;-92
2024/04/11 11:05:07;;;;;;;11.02;3.08;;;;;;;21.95;30.10;100371.31;5090628;28;20017;-94
2024/04/11 11:07:44;;;;;;;6.57;2.97;;;;;;;21.95;29.98;100378.75;5068416;28;20002;-92
2024/04/11 11:10:13;;;;;;;5.28;3.08;;;;;;;21.87;30.31;100368.56;5063723;28;20004;-93
2024/04/11 11:12:42;;;;;;;12.35;3.78;;;;;;;21.95;29.82;100365.84;5088314;27;20005;-91
2024/04/11 11:15:31;;;;;;;6.63;3.35;;;;;;;22.05;30.54;100361.19;5059190;28;20002;-93
2024/04/11 11:27:55;;;;;;;7.78;3.80;;;;;;;22.00;31.32;100365.69;4947210;28;20016;-93
2024/04/11 11:30:24;;;;;;;7.88;4.10;;;;;;;21.95;31.61;100365.84;4932775;29;20478;-92
2024/04/11 11:36:30;;;;;;;;;;;;;;;;;;;;;
2024/04/11 11:39:17;;;;;;;6.55;3.25;;;;;;;21.93;31.55;100353.56;5117092;27;20002;-94
2024/04/11 11:42:00;;;;;;;5.78;3.95;;;;;;;22.00;31.59;100345.69;5064021;28;20006;-94
2024/04/11 11:44:56;;;;;;;8.55;5.78;;;;;;;22.03;31.68;100342.28;5062572;28;20002;-94
2024/04/11 11:47:35;;;;;;;5.47;3.53;;;;;;;22.06;31.33;100347.16;5092832;27;20018;-93
2024/04/11 11:50:07;;;;;;;7.57;3.97;;;;;;;22.21;31.68;100359.59;5067723;28;20468;-90
2024/04/11 11:52:55;;;;;;;9.35;4.40;;;;;;;22.23;31.93;100342.81;5042968;28;20021;-93
2024/04/11 11:55:25;;;;;;;7.25;3.78;;;;;;;22.17;31.32;100347.63;5036414;28;20006;-94
2024/04/11 11:58:03;;;;;;;6.82;3.72;;;;;;;22.23;31.04;100340.91;5095342;27;20010;-94
2024/04/11 12:01:02;;;;;;;5.38;3.53;;;;;;;22.22;31.20;100339.22;5124543;27;20081;-93
2024/04/11 12:03:32;;;;;;;7.50;3.85;;;;;;;22.03;31.13;100325.03;5162357;27;20043;-91
2024/04/11 12:06:22;;;;;;;5.63;3.35;;;;;;;22.02;31.64;100318.75;5158900;27;20022;-93
2024/04/11 12:09:21;;;;;;;6.25;3.80;;;;;;;22.29;31.33;100347.84;5072957;28;20017;-93
2024/04/11 12:12:51;;;;;;;7.10;3.72;;;;;;;22.35;31.47;100348.44;5017304;28;19995;-95
2024/04/11 12:15:31;;;;;;;6.97;4.63;;;;;;;22.35;30.25;100340.22;4947060;28;20015;-92
2024/04/11 12:18:22;;;;;;;11.13;6.97;;;;;;;22.36;30.76;100309.72;4932836;28;20094;-93
2024/04/11 12:21:49;;;;;;;6.70;3.53;;;;;;;22.64;30.94;100331.34;4963310;28;20086;-93
2024/04/11 12:27:58;;;;;;;;;;;;;;;;;;;;;
2024/04/11 12:30:24;;;;;;;5.68;3.60;;;;;;;22.64;29.90;100303.06;4870294;29;20348;-93
2024/04/11 12:32:52;;;;;;;6.20;4.38;;;;;;;22.63;29.85;100291.28;5038967;27;20011;-92
2024/04/11 12:35:19;;;;;;;5.25;3.97;;;;;;;22.72;30.45;100286.56;5157075;27;20012;-93
2024/04/11 12:37:46;;;;;;;6.30;3.67;;;;;;;22.90;30.44;100294.75;5126070;27;20000;-95
2024/04/11 12:40:33;;;;;;;8.38;4.20;;;;;;;22.87;30.49;100296.22;5116107;27;20000;-93
2024/04/11 12:43:05;;;;;;;6.50;3.78;;;;;;;22.82;30.32;100309.31;5122604;27;20016;-95
2024/04/11 12:45:38;;;;;;;5.32;3.60;;;;;;;22.88;30.98;100308.00;5126272;27;20020;-95
2024/04/11 12:48:09;;;;;;;5.70;3.63;;;;;;;22.85;30.37;100298.47;5130962;27;20082;-93
2024/04/11 12:50:35;;;;;;;5.35;3.40;;;;;;;23.00;30.27;100311.66;5153776;27;20005;-94
2024/04/11 12:53:24;;;;;;;12.80;3.92;;;;;;;22.97;29.93;100306.00;5106571;27;20037;-93